Time;durP1;ratioP1;P1;durP2;ratioP2;P2;SDS_P1;SDS_P2;PMS_P1;PMS_P2;Temp;Humidity;BMP_temperature;BMP_pressure;BME280_temperature;BME280_humidity;BME280_pressure;Samples;Min_cycle;Max_cycle;Signal;HPM_P1;HPM_P2
2022/01/17 00:01:08;;;;;;;78.10;51.47;;;4.70;99.90;;;;;;5056261;28;20486;-70
2022/01/17 00:03:35;;;;;;;85.60;46.17;;;4.70;99.90;;;;;;5054912;28;20463;-72
2022/01/17 00:06:02;;;;;;;79.20;48.87;;;4.60;99.90;;;;;;5059811;28;20845;-71
2022/01/17 00:08:29;;;;;;;74.67;47.70;;;4.50;99.90;;;;;;5063589;28;20462;-72
2022/01/17 00:10:57;;;;;;;80.37;48.53;;;4.50;99.90;;;;;;5054974;28;20496;-71
2022/01/17 00:13:26;;;;;;;91.63;50.37;;;4.60;99.90;;;;;;5062321;28;20487;-72
2022/01/17 00:15:57;;;;;;;90.13;47.57;;;4.60;99.90;;;;;;5059390;28;20523;-72
2022/01/17 00:18:41;;;;;;;78.27;49.10;;;4.60;99.90;;;;;;5060925;28;20471;-72
2022/01/17 00:21:08;;;;;;;78.03;46.43;;;4.70;99.90;;;;;;5052628;28;21789;-71
2022/01/17 00:23:35;;;;;;;80.17;50.20;;;4.60;99.90;;;;;;5062039;28;20459;-71
2022/01/17 00:26:05;;;;;;;80.87;52.50;;;4.60;99.90;;;;;;5056655;28;20977;-71
2022/01/17 00:28:32;;;;;;;104.70;53.07;;;4.70;99.90;;;;;;5049500;28;20460;-71
2022/01/17 00:31:01;;;;;;;90.03;52.97;;;4.80;99.90;;;;;;5052130;28;20548;-71
2022/01/17 00:33:28;;;;;;;90.67;52.40;;;4.80;99.90;;;;;;5063656;28;20538;-71
2022/01/17 00:35:54;;;;;;;97.10;54.90;;;4.80;99.90;;;;;;5056279;28;20501;-72
2022/01/17 00:38:21;;;;;;;72.23;52.57;;;4.80;99.90;;;;;;5056804;28;20981;-72
2022/01/17 00:40:48;;;;;;;89.60;54.97;;;4.80;99.90;;;;;;5055741;28;20452;-72
2022/01/17 00:43:16;;;;;;;92.37;55.13;;;4.80;99.90;;;;;;5056935;28;20471;-71
2022/01/17 00:45:44;;;;;;;83.37;54.00;;;4.80;99.90;;;;;;5061034;28;20476;-70
2022/01/17 00:48:12;;;;;;;107.53;55.07;;;4.80;99.90;;;;;;5061736;28;20469;-71
2022/01/17 00:50:40;;;;;;;103.67;53.50;;;4.80;99.90;;;;;;5053518;28;20483;-72
2022/01/17 00:53:08;;;;;;;94.07;51.70;;;4.80;99.90;;;;;;5054397;28;20461;-71
2022/01/17 00:55:37;;;;;;;96.17;55.40;;;4.80;99.90;;;;;;5052141;28;20486;-70
2022/01/17 00:58:04;;;;;;;87.00;53.40;;;4.80;99.90;;;;;;5049682;28;20476;-72
2022/01/17 01:00:33;;;;;;;89.30;50.97;;;4.80;99.90;;;;;;5059907;28;20768;-72
2022/01/17 01:03:00;;;;;;;78.40;48.27;;;4.80;99.90;;;;;;5057666;28;20465;-72
2022/01/17 01:05:27;;;;;;;94.60;53.60;;;4.70;99.90;;;;;;5057383;28;20461;-71
2022/01/17 01:07:54;;;;;;;87.07;50.63;;;4.80;99.90;;;;;;5063404;28;20466;-72
2022/01/17 01:10:22;;;;;;;76.27;48.83;;;4.70;99.90;;;;;;5057301;28;21077;-70
2022/01/17 01:12:51;;;;;;;71.13;47.40;;;4.80;99.90;;;;;;5056849;28;20484;-71
2022/01/17 01:15:22;;;;;;;80.27;50.03;;;4.80;99.90;;;;;;5046833;28;20467;-70
2022/01/17 01:17:52;;;;;;;85.27;50.03;;;4.80;99.90;;;;;;5055480;28;20543;-72
2022/01/17 01:20:48;;;;;;;80.70;49.17;;;4.80;99.90;;;;;;5051076;28;20469;-71
2022/01/17 01:28:44;;;;;;;105.50;55.67;;;4.90;99.90;;;;;;5058209;28;20466;-72
2022/01/17 01:31:15;;;;;;;108.20;55.33;;;4.90;99.90;;;;;;5055898;28;20847;-72
2022/01/17 01:33:51;;;;;;;107.60;54.77;;;4.90;99.90;;;;;;5053692;28;20463;-72
2022/01/17 01:36:23;;;;;;;95.53;54.00;;;5.00;99.90;;;;;;5061776;28;21007;-73
2022/01/17 01:38:50;;;;;;;104.43;55.07;;;5.00;99.90;;;;;;5054192;28;20460;-71
2022/01/17 01:41:17;;;;;;;90.67;56.50;;;4.90;99.90;;;;;;5057954;28;20467;-72
2022/01/17 01:43:43;;;;;;;83.67;51.30;;;5.00;99.90;;;;;;5063845;28;20467;-72
2022/01/17 01:46:14;;;;;;;107.47;58.57;;;4.90;99.90;;;;;;5055439;28;21018;-72
2022/01/17 01:48:41;;;;;;;105.60;58.27;;;5.00;99.90;;;;;;5059641;28;20460;-72
2022/01/17 01:51:09;;;;;;;99.50;56.40;;;5.00;99.90;;;;;;5053552;28;20600;-71
2022/01/17 01:53:36;;;;;;;120.70;61.23;;;5.00;99.90;;;;;;5056131;28;20923;-72
2022/01/17 01:56:04;;;;;;;112.33;58.20;;;5.00;99.90;;;;;;5049937;28;20466;-71
2022/01/17 01:58:30;;;;;;;108.67;57.57;;;5.00;99.90;;;;;;5056752;28;20521;-71
2022/01/17 02:00:59;;;;;;;118.63;59.67;;;5.00;99.90;;;;;;5049002;28;20475;-72
2022/01/17 02:03:26;;;;;;;96.40;55.40;;;5.00;99.90;;;;;;5048498;28;20695;-72
2022/01/17 02:05:53;;;;;;;94.03;54.23;;;5.10;99.90;;;;;;5056192;28;20476;-72
2022/01/17 02:08:21;;;;;;;91.33;55.43;;;5.10;99.90;;;;;;5059259;28;20459;-71
2022/01/17 02:10:48;;;;;;;100.07;56.47;;;5.10;99.90;;;;;;5058268;28;20574;-70
2022/01/17 02:13:15;;;;;;;97.30;60.13;;;5.10;99.90;;;;;;5050381;28;20492;-72
2022/01/17 02:15:43;;;;;;;102.63;58.37;;;5.20;99.90;;;;;;5049638;28;20464;-72
2022/01/17 02:18:12;;;;;;;99.67;54.70;;;5.20;99.90;;;;;;5053192;28;20869;-70
2022/01/17 02:20:43;;;;;;;84.90;51.27;;;5.20;99.90;;;;;;5052734;28;20597;-72
2022/01/17 02:23:11;;;;;;;96.60;54.90;;;5.20;99.90;;;;;;5054321;28;20814;-71
2022/01/17 02:25:38;;;;;;;108.03;57.27;;;5.20;99.90;;;;;;5045330;28;20510;-72
2022/01/17 02:28:05;;;;;;;88.47;53.83;;;5.30;99.90;;;;;;5058889;28;20464;-71
2022/01/17 02:30:33;;;;;;;93.43;55.97;;;5.20;99.90;;;;;;5051825;28;20480;-70
2022/01/17 02:33:00;;;;;;;97.33;56.57;;;5.20;99.90;;;;;;5055495;28;20458;-69
2022/01/17 02:35:28;;;;;;;97.27;55.27;;;5.20;99.90;;;;;;5059022;28;20542;-72
2022/01/17 02:37:57;;;;;;;110.20;54.37;;;5.30;99.90;;;;;;5053101;28;20468;-70
2022/01/17 02:40:24;;;;;;;96.97;53.47;;;5.30;99.90;;;;;;5059118;28;20463;-72
2022/01/17 02:42:56;;;;;;;93.57;53.80;;;5.30;99.90;;;;;;5053918;28;20509;-71
2022/01/17 02:45:32;;;;;;;95.83;54.73;;;5.30;99.90;;;;;;5054160;28;20471;-71
2022/01/17 02:48:01;;;;;;;106.17;55.93;;;5.30;99.90;;;;;;5058271;28;20546;-71
2022/01/17 02:50:27;;;;;;;107.47;58.20;;;5.30;99.90;;;;;;5054183;28;20945;-70
2022/01/17 02:53:00;;;;;;;102.40;53.93;;;5.30;99.90;;;;;;5057812;28;20461;-70
2022/01/17 02:55:27;;;;;;;109.33;57.40;;;5.30;99.90;;;;;;5058155;28;20456;-70
2022/01/17 02:57:54;;;;;;;83.03;52.40;;;5.30;99.90;;;;;;5059969;28;20562;-71
2022/01/17 03:00:21;;;;;;;102.40;53.80;;;5.30;99.90;;;;;;5058847;28;20847;-71
2022/01/17 03:02:49;;;;;;;87.07;52.20;;;5.30;99.90;;;;;;5056716;28;20456;-70
2022/01/17 03:05:16;;;;;;;107.17;57.37;;;5.30;99.90;;;;;;5056414;28;20466;-71
2022/01/17 03:07:44;;;;;;;93.67;53.90;;;5.40;99.90;;;;;;5062334;28;20460;-70
2022/01/17 03:10:23;;;;;;;101.47;56.80;;;5.40;99.90;;;;;;5063268;28;20472;-72
2022/01/17 03:12:49;;;;;;;88.23;54.00;;;5.40;99.90;;;;;;5064096;28;20561;-70
2022/01/17 03:15:16;;;;;;;96.07;54.33;;;5.40;99.90;;;;;;5054560;28;20469;-72
2022/01/17 03:17:43;;;;;;;85.17;52.80;;;5.40;99.90;;;;;;5061493;28;20959;-70
2022/01/17 03:20:11;;;;;;;96.47;55.40;;;5.30;99.90;;;;;;5054257;28;20459;-71
2022/01/17 03:22:39;;;;;;;101.00;55.87;;;5.40;99.90;;;;;;5060430;28;20543;-70
2022/01/17 03:25:07;;;;;;;89.10;51.03;;;5.40;99.90;;;;;;5062189;28;20502;-72
2022/01/17 03:27:35;;;;;;;84.93;52.00;;;5.40;99.90;;;;;;5056605;28;20828;-71
2022/01/17 03:30:02;;;;;;;100.27;53.80;;;5.30;99.90;;;;;;5056857;28;20818;-71
2022/01/17 03:32:29;;;;;;;93.53;56.93;;;5.30;99.90;;;;;;5063077;28;20500;-72
2022/01/17 03:34:56;;;;;;;89.47;51.27;;;5.30;99.90;;;;;;5060205;28;20459;-69
2022/01/17 03:37:23;;;;;;;99.50;58.17;;;5.30;99.90;;;;;;5057788;28;20460;-71
2022/01/17 03:39:50;;;;;;;91.47;52.50;;;5.20;99.90;;;;;;5055971;28;20572;-70
2022/01/17 03:42:18;;;;;;;96.93;55.87;;;5.10;99.90;;;;;;5059275;28;20459;-71
2022/01/17 03:44:47;;;;;;;77.80;48.70;;;5.10;99.90;;;;;;5054027;28;20550;-71
2022/01/17 03:47:14;;;;;;;100.63;52.23;;;5.00;99.90;;;;;;5054622;28;20890;-71
2022/01/17 03:49:41;;;;;;;83.70;53.20;;;4.90;99.90;;;;;;5053371;28;20565;-71
2022/01/17 03:52:08;;;;;;;86.00;54.00;;;4.90;99.90;;;;;;5061546;28;20961;-70
2022/01/17 03:54:35;;;;;;;84.47;53.10;;;4.90;99.90;;;;;;5058532;28;20448;-72
2022/01/17 03:57:03;;;;;;;87.83;53.17;;;4.80;99.90;;;;;;5064993;28;20609;-72
2022/01/17 03:59:30;;;;;;;90.23;53.40;;;4.80;99.90;;;;;;5058799;28;20479;-71
2022/01/17 04:01:58;;;;;;;87.47;52.23;;;4.80;99.90;;;;;;5049669;28;20826;-71
2022/01/17 04:04:25;;;;;;;107.27;52.03;;;4.70;99.90;;;;;;5053090;28;20467;-71
2022/01/17 04:06:52;;;;;;;90.20;53.30;;;4.70;99.90;;;;;;5057005;28;20981;-70
2022/01/17 04:09:19;;;;;;;95.10;52.47;;;4.70;99.90;;;;;;5061308;28;20554;-71
2022/01/17 04:11:46;;;;;;;104.40;54.23;;;4.70;99.90;;;;;;5062038;28;20499;-70
2022/01/17 04:14:13;;;;;;;83.97;49.80;;;4.70;99.90;;;;;;5061955;28;21194;-71
2022/01/17 04:16:40;;;;;;;83.20;51.73;;;4.70;99.90;;;;;;5059041;28;20464;-70
2022/01/17 04:19:09;;;;;;;78.33;50.80;;;4.70;99.90;;;;;;5054668;28;20468;-72
2022/01/17 04:21:37;;;;;;;92.60;53.33;;;4.80;99.90;;;;;;5054316;28;20474;-71
2022/01/17 04:24:04;;;;;;;103.27;54.50;;;4.90;99.90;;;;;;5056478;28;21033;-71
2022/01/17 04:26:31;;;;;;;98.50;56.63;;;4.90;99.90;;;;;;5058742;28;20465;-72
2022/01/17 04:28:58;;;;;;;91.33;52.50;;;4.90;99.90;;;;;;5055577;28;20546;-71
2022/01/17 04:31:25;;;;;;;81.37;50.87;;;5.00;99.90;;;;;;5053761;28;20499;-70
2022/01/17 04:33:52;;;;;;;92.03;56.13;;;5.00;99.90;;;;;;5063978;28;20459;-70
2022/01/17 04:36:20;;;;;;;94.00;52.63;;;5.00;99.90;;;;;;5060784;28;20464;-72
2022/01/17 04:38:47;;;;;;;84.00;51.97;;;5.00;99.90;;;;;;5054586;28;20817;-70
2022/01/17 04:41:16;;;;;;;98.00;55.97;;;5.00;99.90;;;;;;5058793;28;20467;-70
2022/01/17 04:43:56;;;;;;;81.33;51.20;;;5.00;99.90;;;;;;5059056;28;20467;-71
2022/01/17 04:46:23;;;;;;;81.00;52.67;;;5.00;99.90;;;;;;5049103;28;20469;-70
2022/01/17 04:48:50;;;;;;;96.43;51.90;;;5.10;99.90;;;;;;5059620;28;20464;-71
2022/01/17 04:51:17;;;;;;;79.43;52.87;;;5.10;99.90;;;;;;5062074;28;20480;-72
2022/01/17 04:53:59;;;;;;;80.53;52.33;;;5.10;99.90;;;;;;5061955;28;20905;-71
2022/01/17 04:56:27;;;;;;;83.20;53.27;;;5.00;99.90;;;;;;5062971;28;20540;-72
2022/01/17 04:58:53;;;;;;;75.70;51.90;;;5.10;99.90;;;;;;5055632;28;20970;-72
2022/01/17 05:01:20;;;;;;;82.63;52.87;;;5.10;99.90;;;;;;5036090;28;20514;-70
2022/01/17 05:03:47;;;;;;;81.70;51.83;;;5.10;99.90;;;;;;5049890;28;20491;-70
2022/01/17 05:06:14;;;;;;;80.63;50.70;;;5.20;99.90;;;;;;5057692;28;20485;-69
2022/01/17 05:08:41;;;;;;;94.93;51.63;;;5.20;99.90;;;;;;5054371;28;20968;-72
2022/01/17 05:11:09;;;;;;;84.40;51.23;;;5.10;99.90;;;;;;5033230;28;20992;-70
2022/01/17 05:13:43;;;;;;;89.47;52.27;;;5.20;99.90;;;;;;5032393;28;20478;-71
2022/01/17 05:16:14;;;;;;;80.63;49.50;;;5.10;99.90;;;;;;5031776;28;20563;-72
2022/01/17 05:21:25;;;;;;;84.07;51.60;;;5.20;99.90;;;;;;5033203;28;20491;-72
2022/01/17 05:23:52;;;;;;;82.77;50.40;;;5.20;99.90;;;;;;5030217;28;20463;-70
2022/01/17 05:26:20;;;;;;;72.27;50.67;;;5.20;99.90;;;;;;5032851;28;20485;-69
2022/01/17 05:28:47;;;;;;;76.57;51.17;;;5.10;99.90;;;;;;5033261;28;20456;-69
2022/01/17 05:31:15;;;;;;;68.33;47.60;;;5.10;99.90;;;;;;5033004;28;20473;-71
2022/01/17 05:33:42;;;;;;;84.57;48.67;;;5.10;99.90;;;;;;5032232;28;20459;-71
2022/01/17 05:36:09;;;;;;;71.33;46.63;;;5.10;99.90;;;;;;5032123;28;21461;-70
2022/01/17 05:38:36;;;;;;;67.73;46.90;;;5.20;99.90;;;;;;5032533;28;20981;-70
2022/01/17 05:41:03;;;;;;;82.03;48.57;;;5.20;99.90;;;;;;5032844;28;20562;-71
2022/01/17 05:43:31;;;;;;;76.83;49.70;;;5.20;99.90;;;;;;5033319;28;20466;-70
2022/01/17 05:45:58;;;;;;;74.10;45.83;;;5.30;99.90;;;;;;5030686;28;21516;-71
2022/01/17 05:48:25;;;;;;;81.13;47.60;;;5.20;99.90;;;;;;5032973;28;20447;-70
2022/01/17 05:50:52;;;;;;;65.80;47.10;;;5.20;99.90;;;;;;5032634;28;20491;-72
2022/01/17 05:53:19;;;;;;;69.40;48.37;;;5.20;99.90;;;;;;5032363;28;20479;-69
2022/01/17 05:55:45;;;;;;;74.73;46.20;;;5.30;99.90;;;;;;5031969;28;20516;-72
2022/01/17 05:58:13;;;;;;;81.73;48.87;;;5.30;99.90;;;;;;5033195;28;20933;-70
2022/01/17 06:00:41;;;;;;;75.40;48.20;;;5.30;99.90;;;;;;5030404;28;20488;-69
2022/01/17 06:03:08;;;;;;;81.20;45.20;;;5.30;99.90;;;;;;5032096;28;20487;-71
2022/01/17 06:05:35;;;;;;;81.40;45.77;;;5.20;99.90;;;;;;5031782;28;20467;-71
2022/01/17 06:08:02;;;;;;;83.87;49.97;;;5.20;99.90;;;;;;5030789;28;21028;-70
2022/01/17 06:10:29;;;;;;;72.13;47.57;;;5.30;99.90;;;;;;5030124;28;20589;-69
2022/01/17 06:12:56;;;;;;;79.73;47.37;;;5.30;99.90;;;;;;5030596;28;21073;-72
2022/01/17 06:15:23;;;;;;;90.40;49.17;;;5.30;99.90;;;;;;5031534;28;20876;-70
2022/01/17 06:17:51;;;;;;;87.60;46.40;;;5.30;99.90;;;;;;5029489;28;20465;-71
2022/01/17 06:20:18;;;;;;;82.10;45.23;;;5.30;99.90;;;;;;5030239;28;20561;-70
2022/01/17 06:22:45;;;;;;;73.57;46.63;;;5.30;99.90;;;;;;5030585;28;20817;-69
2022/01/17 06:25:13;;;;;;;71.67;42.97;;;5.30;99.90;;;;;;5030954;28;20463;-72
2022/01/17 06:27:40;;;;;;;78.50;44.43;;;5.20;99.90;;;;;;5029015;28;20458;-70
2022/01/17 06:30:08;;;;;;;77.00;45.57;;;5.30;99.90;;;;;;5030261;28;20467;-69
2022/01/17 06:32:35;;;;;;;88.57;47.40;;;5.30;99.90;;;;;;5028968;28;20487;-71
2022/01/17 06:35:04;;;;;;;77.77;43.40;;;5.30;99.90;;;;;;5030256;28;20640;-72
2022/01/17 06:37:31;;;;;;;83.80;45.80;;;5.30;99.90;;;;;;5031998;28;21009;-72
2022/01/17 06:39:58;;;;;;;79.97;46.67;;;5.40;99.90;;;;;;5042855;28;20472;-68
2022/01/17 06:42:25;;;;;;;83.00;47.47;;;5.40;99.90;;;;;;5056805;28;20460;-71
2022/01/17 06:44:53;;;;;;;81.73;45.13;;;5.30;99.90;;;;;;5043175;28;20459;-70
2022/01/17 06:47:20;;;;;;;85.60;44.83;;;5.30;99.90;;;;;;5031772;28;20522;-70
2022/01/17 06:49:47;;;;;;;74.13;44.70;;;5.30;99.90;;;;;;5029776;28;20821;-69
2022/01/17 06:52:16;;;;;;;78.67;45.00;;;5.30;99.90;;;;;;5029245;28;21476;-71
2022/01/17 06:54:43;;;;;;;79.23;44.27;;;5.40;99.90;;;;;;5038382;28;20459;-72
2022/01/17 06:57:09;;;;;;;89.40;47.37;;;5.40;99.90;;;;;;5056092;28;20990;-72
2022/01/17 06:59:36;;;;;;;78.57;44.33;;;5.40;99.90;;;;;;5033785;28;20966;-72
2022/01/17 07:02:04;;;;;;;72.37;45.37;;;5.40;99.90;;;;;;5028173;28;20481;-71
2022/01/17 07:04:30;;;;;;;95.07;46.30;;;5.40;99.90;;;;;;5030129;28;20471;-71
2022/01/17 07:06:57;;;;;;;72.90;44.20;;;5.30;99.90;;;;;;5030220;28;20464;-71
2022/01/17 07:09:25;;;;;;;74.10;45.40;;;5.30;99.90;;;;;;5030529;28;21072;-72
2022/01/17 07:11:52;;;;;;;67.43;42.40;;;5.30;99.90;;;;;;5027814;28;21097;-70
2022/01/17 07:14:19;;;;;;;87.33;45.90;;;5.30;99.90;;;;;;5029505;28;20459;-70
2022/01/17 07:16:47;;;;;;;88.70;48.87;;;5.30;99.90;;;;;;5025421;28;20894;-70
2022/01/17 07:19:13;;;;;;;87.10;46.60;;;5.40;99.90;;;;;;5025986;28;20543;-70
2022/01/17 07:21:40;;;;;;;79.23;42.50;;;5.40;99.90;;;;;;5022391;28;20463;-69
2022/01/17 07:24:07;;;;;;;75.80;45.90;;;5.40;99.90;;;;;;5026038;28;20463;-68
2022/01/17 07:26:36;;;;;;;80.23;44.97;;;5.40;99.90;;;;;;5025376;28;20476;-70
2022/01/17 07:29:05;;;;;;;82.83;43.93;;;5.40;99.90;;;;;;5022266;28;20499;-71
2022/01/17 07:31:32;;;;;;;83.20;47.33;;;5.40;99.90;;;;;;5024492;28;22498;-69
2022/01/17 07:34:00;;;;;;;64.03;38.67;;;5.40;99.90;;;;;;5024586;28;20582;-70
2022/01/17 07:36:26;;;;;;;93.13;46.20;;;5.40;99.90;;;;;;5025438;28;20460;-70
2022/01/17 07:38:53;;;;;;;88.57;44.63;;;5.40;99.90;;;;;;5022291;28;23324;-71
2022/01/17 07:41:20;;;;;;;74.63;43.30;;;5.40;99.90;;;;;;5032344;28;20890;-69
2022/01/17 07:43:50;;;;;;;69.67;45.90;;;5.40;99.90;;;;;;5041914;28;20485;-71
2022/01/17 07:46:24;;;;;;;81.37;41.23;;;5.30;99.90;;;;;;5028025;28;20458;-71
2022/01/17 07:49:09;;;;;;;75.30;41.77;;;5.30;99.90;;;;;;5025654;28;20852;-70
2022/01/17 07:51:37;;;;;;;81.97;44.53;;;5.30;99.90;;;;;;5029706;28;20463;-71
2022/01/17 07:54:05;;;;;;;86.10;47.40;;;5.30;99.90;;;;;;5028663;28;20859;-71
2022/01/17 07:56:32;;;;;;;62.87;36.83;;;5.30;99.90;;;;;;5027946;28;20459;-69
2022/01/17 07:59:00;;;;;;;83.50;43.20;;;5.30;99.90;;;;;;5025505;28;20546;-70
2022/01/17 08:01:27;;;;;;;86.33;45.20;;;5.20;99.90;;;;;;5027108;28;21735;-71
2022/01/17 08:03:54;;;;;;;72.80;39.77;;;5.20;99.90;;;;;;5026903;28;20957;-70
2022/01/17 08:06:21;;;;;;;77.10;43.50;;;5.20;99.90;;;;;;5026205;28;20469;-70
2022/01/17 08:08:48;;;;;;;77.03;42.07;;;5.30;99.90;;;;;;5028209;28;20455;-70
2022/01/17 08:11:16;;;;;;;77.00;41.37;;;5.30;99.90;;;;;;5029225;28;21263;-70
2022/01/17 08:13:43;;;;;;;71.73;42.33;;;5.40;99.90;;;;;;5027274;28;20506;-70
2022/01/17 08:16:11;;;;;;;76.60;41.83;;;5.40;99.90;;;;;;5024025;28;20464;-70
2022/01/17 08:18:38;;;;;;;72.33;43.10;;;5.40;99.90;;;;;;5023710;28;20448;-69
2022/01/17 08:21:05;;;;;;;77.73;40.27;;;5.40;99.90;;;;;;5018457;28;20480;-70
2022/01/17 08:23:32;;;;;;;77.73;44.57;;;5.40;99.90;;;;;;5019907;28;20482;-71
2022/01/17 08:25:58;;;;;;;86.13;43.43;;;5.50;99.90;;;;;;5025255;28;20472;-71
2022/01/17 08:28:25;;;;;;;80.43;41.73;;;5.50;99.90;;;;;;5025567;28;22461;-72
2022/01/17 08:30:52;;;;;;;74.60;44.00;;;5.40;99.90;;;;;;5026692;28;20479;-72
2022/01/17 08:33:21;;;;;;;83.17;45.47;;;5.40;99.90;;;;;;5025874;28;20490;-70
2022/01/17 08:35:48;;;;;;;76.60;44.10;;;5.50;99.90;;;;;;5027971;28;20474;-71
2022/01/17 08:38:15;;;;;;;91.53;42.50;;;5.50;99.90;;;;;;5025371;28;20974;-71
2022/01/17 08:40:42;;;;;;;82.60;44.40;;;5.40;99.90;;;;;;5027826;28;20465;-70
2022/01/17 08:43:09;;;;;;;85.37;45.53;;;5.50;99.90;;;;;;5027689;28;20695;-71
2022/01/17 08:45:36;;;;;;;97.33;45.03;;;5.50;99.90;;;;;;5027879;28;20469;-71
2022/01/17 08:48:04;;;;;;;89.03;42.80;;;5.50;99.90;;;;;;5027276;28;20485;-72
2022/01/17 08:50:33;;;;;;;68.87;39.87;;;5.50;99.90;;;;;;5027684;28;20939;-71
2022/01/17 08:53:00;;;;;;;84.47;43.07;;;5.50;99.90;;;;;;5026959;28;20499;-69
2022/01/17 08:55:27;;;;;;;72.63;41.50;;;5.60;99.90;;;;;;5025165;28;20482;-72
2022/01/17 08:57:54;;;;;;;80.93;44.20;;;5.70;99.90;;;;;;5027539;28;20460;-72
2022/01/17 09:00:21;;;;;;;74.00;42.90;;;5.70;99.90;;;;;;5027261;28;21493;-69
2022/01/17 09:02:48;;;;;;;83.27;44.17;;;5.70;99.90;;;;;;5025272;28;20463;-70
2022/01/17 09:05:15;;;;;;;77.87;42.03;;;5.80;99.90;;;;;;5026059;28;21264;-71
2022/01/17 09:07:43;;;;;;;75.67;43.90;;;5.90;99.90;;;;;;5025808;28;20577;-70
2022/01/17 09:10:10;;;;;;;77.63;44.33;;;6.00;99.90;;;;;;5025351;28;22551;-71
2022/01/17 09:12:37;;;;;;;81.53;43.53;;;6.10;99.90;;;;;;5024292;28;20886;-69
2022/01/17 09:15:05;;;;;;;92.97;45.57;;;6.20;99.90;;;;;;5022519;28;20901;-71
2022/01/17 09:17:32;;;;;;;89.60;43.40;;;6.20;99.90;;;;;;5015957;28;20460;-71
2022/01/17 09:19:58;;;;;;;73.83;45.13;;;6.20;99.90;;;;;;5012806;28;21250;-69
2022/01/17 09:22:25;;;;;;;79.63;44.77;;;6.20;99.90;;;;;;5026335;28;20565;-70
2022/01/17 09:24:53;;;;;;;78.63;45.67;;;6.30;99.90;;;;;;5026399;28;20481;-71
2022/01/17 09:27:20;;;;;;;82.67;44.97;;;6.40;99.90;;;;;;5026423;28;20531;-71
2022/01/17 09:29:47;;;;;;;79.17;44.40;;;6.60;99.90;;;;;;5023313;28;20469;-69
2022/01/17 09:32:15;;;;;;;73.07;43.90;;;6.70;99.90;;;;;;5023103;28;21169;-70
2022/01/17 09:34:42;;;;;;;76.57;42.47;;;6.70;99.90;;;;;;5024204;28;20530;-70
2022/01/17 09:37:10;;;;;;;70.73;44.17;;;6.60;99.90;;;;;;5023973;28;21077;-69
2022/01/17 09:39:37;;;;;;;77.10;41.07;;;6.60;99.90;;;;;;5034731;28;20548;-71
2022/01/17 09:42:06;;;;;;;67.97;44.30;;;6.60;99.90;;;;;;5042173;28;20465;-72
2022/01/17 09:44:34;;;;;;;56.10;38.87;;;6.70;99.90;;;;;;5035184;28;20466;-71
2022/01/17 09:47:01;;;;;;;62.70;41.27;;;6.60;99.90;;;;;;5023268;28;20576;-69
2022/01/17 09:49:35;;;;;;;54.73;36.57;;;6.60;99.90;;;;;;5023741;28;20999;-71
2022/01/17 09:52:25;;;;;;;58.37;38.67;;;6.60;99.90;;;;;;5023103;28;20463;-72
2022/01/17 09:54:53;;;;;;;57.33;36.30;;;6.70;99.90;;;;;;5030331;28;20582;-70
2022/01/17 09:57:22;;;;;;;71.37;40.77;;;6.70;99.90;;;;;;5041848;28;20551;-70
2022/01/17 09:59:49;;;;;;;61.03;38.27;;;6.70;99.90;;;;;;5041363;28;20464;-70
2022/01/17 10:02:17;;;;;;;66.27;40.77;;;6.60;99.90;;;;;;5032065;28;20475;-70
2022/01/17 10:04:44;;;;;;;63.97;38.67;;;6.60;99.90;;;;;;5048047;28;20476;-72
2022/01/17 10:07:11;;;;;;;65.20;41.40;;;6.60;99.90;;;;;;5049011;28;21267;-70
2022/01/17 10:09:40;;;;;;;53.63;36.97;;;6.70;99.90;;;;;;5038014;28;20465;-70
2022/01/17 10:12:09;;;;;;;57.43;37.63;;;6.70;99.90;;;;;;5033471;28;21393;-70
2022/01/17 10:14:41;;;;;;;59.47;36.50;;;6.80;99.90;;;;;;5024926;28;21503;-70
2022/01/17 10:17:10;;;;;;;59.43;41.00;;;6.80;99.90;;;;;;5026179;28;21320;-71
2022/01/17 10:19:38;;;;;;;56.87;39.47;;;7.00;99.90;;;;;;5024262;28;20478;-71
2022/01/17 10:22:11;;;;;;;68.37;40.20;;;7.10;99.90;;;;;;5025228;28;21190;-72
2022/01/17 10:24:48;;;;;;;45.87;35.90;;;7.10;99.90;;;;;;5025857;28;21120;-71
2022/01/17 10:27:44;;;;;;;55.03;38.77;;;7.10;99.90;;;;;;5024351;28;20490;-70
2022/01/17 10:30:33;;;;;;;57.83;40.00;;;7.20;99.90;;;;;;5024030;28;20775;-72
2022/01/17 10:35:52;;;;;;;54.67;38.47;;;7.40;99.90;;;;;;5025732;28;21807;-70
2022/01/17 10:38:21;;;;;;;56.27;39.23;;;7.50;99.90;;;;;;5026058;28;20463;-69
2022/01/17 10:40:53;;;;;;;56.37;39.03;;;7.30;99.90;;;;;;5025812;28;20904;-70
2022/01/17 10:43:22;;;;;;;67.27;42.97;;;7.20;99.90;;;;;;5028307;28;20466;-69
2022/01/17 10:45:51;;;;;;;66.27;43.23;;;7.20;99.90;;;;;;5050366;28;20458;-71
2022/01/17 10:48:17;;;;;;;54.57;39.70;;;7.10;99.90;;;;;;5055171;28;20470;-69
2022/01/17 10:50:48;;;;;;;61.53;41.43;;;7.00;99.90;;;;;;5034178;28;21152;-71
2022/01/17 10:53:17;;;;;;;54.43;41.87;;;7.10;99.90;;;;;;5024046;28;20493;-68
2022/01/17 10:55:48;;;;;;;60.80;40.60;;;7.20;99.90;;;;;;5023887;28;20454;-69
2022/01/17 10:58:20;;;;;;;52.83;38.07;;;7.20;99.90;;;;;;5024720;28;20974;-70
2022/01/17 11:00:48;;;;;;;66.10;42.10;;;7.20;99.90;;;;;;5024623;28;20999;-69
2022/01/17 11:03:21;;;;;;;55.97;39.80;;;7.10;99.90;;;;;;5024745;28;20467;-69
2022/01/17 11:05:52;;;;;;;67.30;41.80;;;7.10;99.90;;;;;;5025907;28;20580;-70
2022/01/17 11:08:21;;;;;;;58.33;42.87;;;7.20;99.90;;;;;;5025127;28;21041;-71
2022/01/17 11:10:52;;;;;;;50.93;36.10;;;7.20;99.90;;;;;;5025987;28;20466;-69
2022/01/17 11:13:20;;;;;;;60.00;42.10;;;7.10;99.90;;;;;;5024512;28;20579;-69
2022/01/17 11:15:53;;;;;;;53.03;41.17;;;7.10;99.90;;;;;;5025798;28;20490;-69
2022/01/17 11:18:22;;;;;;;43.43;32.80;;;7.20;99.90;;;;;;5025013;28;20458;-69
2022/01/17 11:20:51;;;;;;;60.93;38.17;;;7.20;99.90;;;;;;5024839;28;21121;-71
2022/01/17 11:23:21;;;;;;;54.07;38.30;;;7.20;99.90;;;;;;5023324;28;20465;-68
2022/01/17 11:25:52;;;;;;;51.57;36.97;;;7.30;99.90;;;;;;5027909;28;20463;-70
2022/01/17 11:28:22;;;;;;;52.90;37.23;;;7.30;99.90;;;;;;5027258;28;20479;-70
2022/01/17 11:30:49;;;;;;;49.97;33.73;;;7.30;99.90;;;;;;5026700;28;20827;-71
2022/01/17 11:33:16;;;;;;;45.40;34.27;;;7.20;99.90;;;;;;5025531;28;20479;-69
2022/01/17 11:35:51;;;;;;;57.53;36.93;;;7.20;99.90;;;;;;5027405;28;20470;-69
2022/01/17 11:38:21;;;;;;;53.23;35.30;;;7.20;99.90;;;;;;5027907;28;20458;-70
2022/01/17 11:40:50;;;;;;;48.90;34.70;;;7.10;99.90;;;;;;5036079;28;21129;-69
2022/01/17 11:43:19;;;;;;;55.00;37.03;;;7.10;99.90;;;;;;5049824;28;20489;-69
2022/01/17 11:45:47;;;;;;;55.10;35.20;;;7.10;99.90;;;;;;5048567;28;20477;-69
2022/01/17 11:48:23;;;;;;;48.53;32.73;;;7.10;99.90;;;;;;5037729;28;20469;-70
2022/01/17 11:50:52;;;;;;;53.87;32.87;;;7.00;99.90;;;;;;5028856;28;20474;-70
2022/01/17 11:53:51;;;;;;;50.70;36.17;;;7.00;99.90;;;;;;5027284;28;20505;-69
2022/01/17 11:56:38;;;;;;;52.47;36.53;;;7.00;99.90;;;;;;5029390;28;20569;-70
2022/01/17 11:59:31;;;;;;;51.07;35.70;;;7.00;99.90;;;;;;5027783;28;20462;-69
2022/01/17 12:02:24;;;;;;;49.10;35.20;;;7.00;99.90;;;;;;5027577;28;20927;-69
2022/01/17 12:05:31;;;;;;;51.00;35.67;;;7.00;99.90;;;;;;5020711;28;21260;-69
2022/01/17 12:07:59;;;;;;;50.77;35.37;;;6.90;99.90;;;;;;5018756;28;20466;-69
2022/01/17 12:10:28;;;;;;;51.93;34.53;;;7.00;99.90;;;;;;5028082;28;20450;-69
2022/01/17 12:13:39;;;;;;;50.07;34.50;;;6.90;99.90;;;;;;5027171;28;20498;-69
2022/01/17 12:16:34;;;;;;;60.43;36.43;;;6.90;99.90;;;;;;5013534;28;20483;-70
2022/01/17 12:19:08;;;;;;;46.33;33.60;;;7.00;99.90;;;;;;5029061;28;20477;-69
2022/01/17 12:21:36;;;;;;;48.93;33.50;;;7.00;99.90;;;;;;5028671;28;21045;-70
2022/01/17 12:24:33;;;;;;;45.50;33.03;;;7.10;99.90;;;;;;5027997;28;20493;-69
2022/01/17 12:27:07;;;;;;;50.37;34.33;;;7.00;99.90;;;;;;5027900;28;20480;-70
2022/01/17 12:29:40;;;;;;;55.30;35.50;;;7.00;99.90;;;;;;5028403;28;20921;-71
2022/01/17 12:32:07;;;;;;;47.83;34.03;;;7.00;99.90;;;;;;5047040;28;20480;-69
2022/01/17 12:34:42;;;;;;;47.73;34.37;;;7.10;99.90;;;;;;5050849;28;20487;-71
2022/01/17 12:37:31;;;;;;;58.53;37.17;;;7.10;99.90;;;;;;5031141;28;20468;-72
2022/01/17 12:40:12;;;;;;;39.77;32.50;;;7.20;99.90;;;;;;5027520;28;20472;-71
2022/01/17 12:42:53;;;;;;;44.70;31.20;;;7.20;99.90;;;;;;5027948;28;20478;-68
2022/01/17 12:45:23;;;;;;;51.30;30.47;;;7.20;99.90;;;;;;5026586;28;20528;-70
2022/01/17 12:47:51;;;;;;;39.60;30.70;;;7.20;99.90;;;;;;5026268;28;21361;-71
2022/01/17 12:50:20;;;;;;;44.50;32.40;;;7.10;99.90;;;;;;5027389;28;20471;-68
2022/01/17 12:52:47;;;;;;;48.67;34.87;;;7.10;99.90;;;;;;5026064;28;20931;-69
2022/01/17 12:55:15;;;;;;;52.37;34.00;;;7.20;99.90;;;;;;5024968;28;20498;-70
2022/01/17 12:57:43;;;;;;;45.03;32.33;;;7.20;99.90;;;;;;5027816;28;20463;-70